Decoded Metar for GCGM (LA GOMERA in SPAIN) (IATA:N/A) | Meteo·Mobile Aviation Weather
aviador You're here:

GCGM Decoded Metar

LA GOMERA in SPAIN
Report Time2019-09-21 08:30:00
UTC Time2019-09-21 08:48:57
Flight Rules vfr VFR
Wind210° at 03 kt
W.Decomp.*RWY 27: 1.8 kt HW 2.4 kt LCW
Visibility9999 m
Phenomena:N/A
Clouds:Few 007 Hf
Expected CloudBase > 1,600 ft AGL from Temp-Dew spread
CeilingNone
Temp22°C
Dew Point18°C (78% RH)
QNH1018 hPa
Raw Report
METAR GCGM 210830Z 21003KT 170V260 9999 FEW007 22/18 Q1018 RMK
R09/VRB02KT ARP/VRB01KT=

Extra information for GCGM:More info

Metar Taf Metar & Taf Last 4 Metars F.Rules Stats Wind Profile Meteogram Temp Stats Airport Information Weather charts Add Link Nearby VenuesMetar ALERT Operation Metar Decoded Social comments